Lovejoy, Georgia
Current Conditions -  °F | °C
As of 5:35 PM on Friday 24 Oct 2014 (Local Time) from K6A2 Reporting Station
Clear Clear  
Wind Chill: 70°   Ceiling: Unl
Heat Index: 70°   Visibility: 10mi
Dew Point: 43°   Wind: 0mph
Humidity: 38%   Direction: NA
Pressure: 30.01"   Gusts: NA
Location:  33.44°N, 84.31°W
Report Text: K6A2 242135Z AUTO 00000KT 10SM CLR 21/06 A3001 RMK AO2
Loading
Personal Weather Stations






























Interactive Weather Map New forecast layout! Learn more

10-Day Weather Forecast

Advertisements
Track Severe Weather on mobile